sensor_id;sensor_type;location;lat;lon;timestamp;pressure;altitude;pressure_sealevel;temperature;humidity
10310;BME280;5200;43.236;27.986;2024-03-02T00:00:50;99896.25;;;7.30;100.00
10310;BME280;5200;43.236;27.986;2024-03-02T00:03:17;99909.56;;;7.49;100.00
10310;BME280;5200;43.236;27.986;2024-03-02T00:05:49;99897.19;;;7.40;100.00
10310;BME280;5200;43.236;27.986;2024-03-02T00:08:22;99910.03;;;7.43;100.00
10310;BME280;5200;43.236;27.986;2024-03-02T00:10:49;99881.38;;;7.30;100.00
10310;BME280;5200;43.236;27.986;2024-03-02T00:13:16;99886.38;;;7.45;100.00
10310;BME280;5200;43.236;27.986;2024-03-02T00:15:48;99870.91;;;7.30;100.00
10310;BME280;5200;43.236;27.986;2024-03-02T00:18:19;99894.81;;;7.37;100.00
10310;BME280;5200;43.236;27.986;2024-03-02T00:20:48;99904.22;;;7.39;100.00
10310;BME280;5200;43.236;27.986;2024-03-02T00:23:16;99883.88;;;7.20;100.00
10310;BME280;5200;43.236;27.986;2024-03-02T00:25:44;99892.09;;;7.38;100.00
10310;BME280;5200;43.236;27.986;2024-03-02T00:28:15;99866.75;;;7.28;100.00
10310;BME280;5200;43.236;27.986;2024-03-02T00:30:54;99877.94;;;7.30;100.00
10310;BME280;5200;43.236;27.986;2024-03-02T00:33:22;99888.66;;;7.27;100.00
10310;BME280;5200;43.236;27.986;2024-03-02T00:35:50;99876.75;;;7.23;100.00
10310;BME280;5200;43.236;27.986;2024-03-02T00:38:17;99880.81;;;7.27;100.00
10310;BME280;5200;43.236;27.986;2024-03-02T00:40:44;99851.06;;;7.16;100.00
10310;BME280;5200;43.236;27.986;2024-03-02T00:43:43;99865.31;;;7.24;100.00
10310;BME280;5200;43.236;27.986;2024-03-02T00:46:15;99855.81;;;7.23;100.00
10310;BME280;5200;43.236;27.986;2024-03-02T00:48:48;99843.91;;;7.18;100.00
10310;BME280;5200;43.236;27.986;2024-03-02T00:51:16;99840.13;;;7.23;100.00
10310;BME280;5200;43.236;27.986;2024-03-02T00:53:43;99835.34;;;7.16;100.00
10310;BME280;5200;43.236;27.986;2024-03-02T00:56:11;99835.84;;;7.10;100.00
10310;BME280;5200;43.236;27.986;2024-03-02T00:58:38;99840.84;;;7.13;100.00
10310;BME280;5200;43.236;27.986;2024-03-02T01:01:05;99829.44;;;7.03;100.00
10310;BME280;5200;43.236;27.986;2024-03-02T01:03:32;99860.34;;;7.20;100.00
10310;BME280;5200;43.236;27.986;2024-03-02T01:05:59;99851.75;;;7.18;100.00
10310;BME280;5200;43.236;27.986;2024-03-02T01:08:28;99863.66;;;7.23;100.00
10310;BME280;5200;43.236;27.986;2024-03-02T01:10:55;99851.31;;;7.25;100.00
10310;BME280;5200;43.236;27.986;2024-03-02T01:13:22;99830.94;;;7.17;100.00
10310;BME280;5200;43.236;27.986;2024-03-02T01:15:49;99843.09;;;7.18;100.00
10310;BME280;5200;43.236;27.986;2024-03-02T01:18:16;99834.88;;;7.11;100.00
10310;BME280;5200;43.236;27.986;2024-03-02T01:20:43;99810.63;;;7.09;100.00
10310;BME280;5200;43.236;27.986;2024-03-02T01:23:11;99811.59;;;7.08;100.00
10310;BME280;5200;43.236;27.986;2024-03-02T01:25:39;99812.78;;;7.15;100.00
10310;BME280;5200;43.236;27.986;2024-03-02T01:28:06;99816.47;;;7.13;100.00
10310;BME280;5200;43.236;27.986;2024-03-02T01:30:33;99803.63;;;6.98;100.00
10310;BME280;5200;43.236;27.986;2024-03-02T01:33:00;99813.00;;;7.12;100.00
10310;BME280;5200;43.236;27.986;2024-03-02T01:35:27;99782.69;;;6.98;100.00
10310;BME280;5200;43.236;27.986;2024-03-02T01:37:54;99798.25;;;7.00;100.00
10310;BME280;5200;43.236;27.986;2024-03-02T01:40:21;99822.78;;;7.10;100.00
10310;BME280;5200;43.236;27.986;2024-03-02T01:42:53;99824.88;;;7.16;100.00
10310;BME280;5200;43.236;27.986;2024-03-02T01:45:20;99781.38;;;7.04;100.00
10310;BME280;5200;43.236;27.986;2024-03-02T01:47:47;99776.25;;;7.03;100.00
10310;BME280;5200;43.236;27.986;2024-03-02T01:50:14;99784.97;;;7.03;100.00
10310;BME280;5200;43.236;27.986;2024-03-02T01:52:41;99799.94;;;7.01;100.00
10310;BME280;5200;43.236;27.986;2024-03-02T01:55:09;99798.50;;;6.97;100.00
10310;BME280;5200;43.236;27.986;2024-03-02T01:57:36;99822.06;;;7.08;100.00
10310;BME280;5200;43.236;27.986;2024-03-02T02:00:06;99810.16;;;7.04;100.00
10310;BME280;5200;43.236;27.986;2024-03-02T02:02:35;99779.00;;;7.01;100.00
10310;BME280;5200;43.236;27.986;2024-03-02T02:05:02;99788.75;;;7.10;100.00
10310;BME280;5200;43.236;27.986;2024-03-02T02:07:29;99770.44;;;6.99;100.00
10310;BME280;5200;43.236;27.986;2024-03-02T02:09:56;99767.84;;;6.99;100.00
10310;BME280;5200;43.236;27.986;2024-03-02T02:12:23;99773.78;;;7.01;100.00
10310;BME280;5200;43.236;27.986;2024-03-02T02:14:50;99746.09;;;6.87;100.00
10310;BME280;5200;43.236;27.986;2024-03-02T02:17:18;99753.69;;;7.02;100.00
10310;BME280;5200;43.236;27.986;2024-03-02T02:19:45;99782.69;;;6.98;100.00
10310;BME280;5200;43.236;27.986;2024-03-02T02:22:14;99753.56;;;6.92;100.00
10310;BME280;5200;43.236;27.986;2024-03-02T02:24:41;99763.19;;;6.91;100.00
10310;BME280;5200;43.236;27.986;2024-03-02T02:27:09;99759.75;;;6.80;100.00
10310;BME280;5200;43.236;27.986;2024-03-02T02:29:36;99760.47;;;6.82;100.00
10310;BME280;5200;43.236;27.986;2024-03-02T02:32:03;99749.28;;;6.80;100.00
10310;BME280;5200;43.236;27.986;2024-03-02T02:34:30;99758.44;;;6.74;100.00
10310;BME280;5200;43.236;27.986;2024-03-02T02:36:57;99750.72;;;6.84;100.00
10310;BME280;5200;43.236;27.986;2024-03-02T02:39:25;99742.16;;;6.82;100.00
10310;BME280;5200;43.236;27.986;2024-03-02T02:41:52;99739.31;;;6.85;100.00
10310;BME280;5200;43.236;27.986;2024-03-02T02:44:19;99745.22;;;6.98;100.00
10310;BME280;5200;43.236;27.986;2024-03-02T02:46:46;99758.66;;;6.93;100.00
10310;BME280;5200;43.236;27.986;2024-03-02T02:49:12;99721.22;;;6.82;100.00
10310;BME280;5200;43.236;27.986;2024-03-02T02:51:39;99759.88;;;6.89;100.00
10310;BME280;5200;43.236;27.986;2024-03-02T02:54:06;99748.34;;;6.92;100.00
10310;BME280;5200;43.236;27.986;2024-03-02T02:56:34;99781.03;;;6.86;100.00
10310;BME280;5200;43.236;27.986;2024-03-02T02:59:01;99773.06;;;6.88;100.00
10310;BME280;5200;43.236;27.986;2024-03-02T03:01:28;99765.94;;;6.78;100.00
10310;BME280;5200;43.236;27.986;2024-03-02T03:03:55;99775.56;;;6.67;100.00
10310;BME280;5200;43.236;27.986;2024-03-02T03:06:21;99783.06;;;6.71;100.00
10310;BME280;5200;43.236;27.986;2024-03-02T03:08:48;99802.91;;;6.74;100.00
10310;BME280;5200;43.236;27.986;2024-03-02T03:11:15;99794.69;;;6.67;100.00
10310;BME280;5200;43.236;27.986;2024-03-02T03:13:43;99786.25;;;6.64;100.00
10310;BME280;5200;43.236;27.986;2024-03-02T03:16:10;99786.38;;;6.62;100.00
10310;BME280;5200;43.236;27.986;2024-03-02T03:18:37;99792.78;;;6.69;100.00
10310;BME280;5200;43.236;27.986;2024-03-02T03:21:04;99781.03;;;6.64;100.00
10310;BME280;5200;43.236;27.986;2024-03-02T03:23:30;99757.38;;;6.65;100.00
10310;BME280;5200;43.236;27.986;2024-03-02T03:25:57;99780.09;;;6.76;100.00
10310;BME280;5200;43.236;27.986;2024-03-02T03:28:24;99777.81;;;6.71;100.00
10310;BME280;5200;43.236;27.986;2024-03-02T03:30:52;99761.66;;;6.66;100.00
10310;BME280;5200;43.236;27.986;2024-03-02T03:33:19;99763.56;;;6.64;100.00
10310;BME280;5200;43.236;27.986;2024-03-02T03:35:46;99783.75;;;6.73;100.00
10310;BME280;5200;43.236;27.986;2024-03-02T03:38:13;99767.13;;;6.63;100.00
10310;BME280;5200;43.236;27.986;2024-03-02T03:40:40;99777.56;;;6.74;100.00
10310;BME280;5200;43.236;27.986;2024-03-02T03:43:07;99762.59;;;6.65;100.00
10310;BME280;5200;43.236;27.986;2024-03-02T03:45:34;99791.63;;;6.73;100.00
10310;BME280;5200;43.236;27.986;2024-03-02T03:48:02;99779.00;;;6.78;100.00
10310;BME280;5200;43.236;27.986;2024-03-02T03:50:29;99781.41;;;6.70;100.00
10310;BME280;5200;43.236;27.986;2024-03-02T03:52:56;99778.78;;;6.70;100.00
10310;BME280;5200;43.236;27.986;2024-03-02T03:55:23;99779.34;;;6.63;100.00
10310;BME280;5200;43.236;27.986;2024-03-02T03:57:50;99747.63;;;6.67;100.00
10310;BME280;5200;43.236;27.986;2024-03-02T04:00:17;99753.56;;;6.69;100.00
10310;BME280;5200;43.236;27.986;2024-03-02T04:02:44;99778.91;;;6.80;100.00
10310;BME280;5200;43.236;27.986;2024-03-02T04:05:12;99772.34;;;6.74;100.00
10310;BME280;5200;43.236;27.986;2024-03-02T04:07:39;99761.41;;;6.58;100.00
10310;BME280;5200;43.236;27.986;2024-03-02T04:10:07;99784.59;;;6.74;100.00
10310;BME280;5200;43.236;27.986;2024-03-02T04:12:35;99768.53;;;6.56;100.00
10310;BME280;5200;43.236;27.986;2024-03-02T04:15:04;99766.88;;;6.55;100.00
10310;BME280;5200;43.236;27.986;2024-03-02T04:17:32;99778.78;;;6.59;100.00
10310;BME280;5200;43.236;27.986;2024-03-02T04:19:59;99776.38;;;6.56;100.00
10310;BME280;5200;43.236;27.986;2024-03-02T04:22:27;99780.41;;;6.60;100.00
10310;BME280;5200;43.236;27.986;2024-03-02T04:24:54;99796.44;;;6.55;100.00
10310;BME280;5200;43.236;27.986;2024-03-02T04:27:21;99768.53;;;6.45;100.00
10310;BME280;5200;43.236;27.986;2024-03-02T04:29:48;99770.44;;;6.43;100.00
10310;BME280;5200;43.236;27.986;2024-03-02T04:32:15;99776.38;;;6.45;100.00
10310;BME280;5200;43.236;27.986;2024-03-02T04:34:42;99770.91;;;6.48;100.00
10310;BME280;5200;43.236;27.986;2024-03-02T04:37:10;99790.41;;;6.66;100.00
10310;BME280;5200;43.236;27.986;2024-03-02T04:39:41;99782.09;;;6.61;100.00
10310;BME280;5200;43.236;27.986;2024-03-02T04:42:07;99781.47;;;6.46;100.00
10310;BME280;5200;43.236;27.986;2024-03-02T04:44:34;99792.28;;;6.53;100.00
10310;BME280;5200;43.236;27.986;2024-03-02T04:47:02;99775.41;;;6.46;100.00
10310;BME280;5200;43.236;27.986;2024-03-02T04:49:29;99777.66;;;6.39;100.00
10310;BME280;5200;43.236;27.986;2024-03-02T04:51:56;99777.78;;;6.38;100.00
10310;BME280;5200;43.236;27.986;2024-03-02T04:54:23;99778.28;;;6.43;100.00
10310;BME280;5200;43.236;27.986;2024-03-02T04:56:51;99780.16;;;6.41;100.00
10310;BME280;5200;43.236;27.986;2024-03-02T04:59:19;99799.31;;;6.52;100.00
10310;BME280;5200;43.236;27.986;2024-03-02T05:01:46;99786.59;;;6.48;100.00
10310;BME280;5200;43.236;27.986;2024-03-02T05:04:13;99773.50;;;6.37;100.00
10310;BME280;5200;43.236;27.986;2024-03-02T05:06:40;99792.19;;;6.54;100.00
10310;BME280;5200;43.236;27.986;2024-03-02T05:09:07;99777.94;;;6.47;100.00
10310;BME280;5200;43.236;27.986;2024-03-02T05:11:34;99796.81;;;6.51;100.00
10310;BME280;5200;43.236;27.986;2024-03-02T05:14:20;99799.44;;;6.62;100.00
10310;BME280;5200;43.236;27.986;2024-03-02T05:16:47;99774.00;;;6.53;100.00
10310;BME280;5200;43.236;27.986;2024-03-02T05:19:14;99776.03;;;6.61;100.00
10310;BME280;5200;43.236;27.986;2024-03-02T05:21:41;99788.88;;;6.75;100.00
10310;BME280;5200;43.236;27.986;2024-03-02T05:24:07;99795.16;;;6.72;100.00
10310;BME280;5200;43.236;27.986;2024-03-02T05:26:34;99807.06;;;6.76;100.00
10310;BME280;5200;43.236;27.986;2024-03-02T05:29:01;99802.28;;;6.82;100.00
10310;BME280;5200;43.236;27.986;2024-03-02T05:31:29;99784.69;;;6.72;100.00
10310;BME280;5200;43.236;27.986;2024-03-02T05:33:56;99790.66;;;6.86;100.00
10310;BME280;5200;43.236;27.986;2024-03-02T05:36:23;99773.31;;;6.73;100.00
10310;BME280;5200;43.236;27.986;2024-03-02T05:38:50;99775.22;;;6.83;100.00
10310;BME280;5200;43.236;27.986;2024-03-02T05:41:17;99789.94;;;6.95;100.00
10310;BME280;5200;43.236;27.986;2024-03-02T05:43:43;99773.16;;;6.86;100.00
10310;BME280;5200;43.236;27.986;2024-03-02T05:46:10;99788.03;;;6.97;100.00
10310;BME280;5200;43.236;27.986;2024-03-02T05:48:38;99789.47;;;7.01;100.00
10310;BME280;5200;43.236;27.986;2024-03-02T05:51:05;99769.72;;;7.08;100.00
10310;BME280;5200;43.236;27.986;2024-03-02T05:53:32;99749.63;;;6.97;100.00
10310;BME280;5200;43.236;27.986;2024-03-02T05:55:59;99765.06;;;7.12;100.00
10310;BME280;5200;43.236;27.986;2024-03-02T05:58:26;99769.00;;;7.17;100.00
10310;BME280;5200;43.236;27.986;2024-03-02T06:01:03;99749.00;;;7.16;100.00
10310;BME280;5200;43.236;27.986;2024-03-02T06:03:31;99765.88;;;7.35;100.00
10310;BME280;5200;43.236;27.986;2024-03-02T06:05:59;99761.34;;;7.37;100.00
10310;BME280;5200;43.236;27.986;2024-03-02T06:08:26;99748.81;;;7.40;100.00
10310;BME280;5200;43.236;27.986;2024-03-02T06:10:53;99749.88;;;7.49;100.00
10310;BME280;5200;43.236;27.986;2024-03-02T06:13:19;99750.13;;;7.46;100.00
10310;BME280;5200;43.236;27.986;2024-03-02T06:15:46;99769.97;;;7.60;100.00
10310;BME280;5200;43.236;27.986;2024-03-02T06:18:13;99764.34;;;7.65;100.00
10310;BME280;5200;43.236;27.986;2024-03-02T06:20:40;99752.91;;;7.66;100.00
10310;BME280;5200;43.236;27.986;2024-03-02T06:23:08;99750.75;;;7.71;100.00
10310;BME280;5200;43.236;27.986;2024-03-02T06:25:35;99740.41;;;7.69;100.00
10310;BME280;5200;43.236;27.986;2024-03-02T06:28:02;99762.81;;;7.83;100.00
10310;BME280;5200;43.236;27.986;2024-03-02T06:30:29;99756.91;;;7.81;100.00
10310;BME280;5200;43.236;27.986;2024-03-02T06:32:56;99749.16;;;7.79;100.00
10310;BME280;5200;43.236;27.986;2024-03-02T06:35:23;99761.41;;;7.90;100.00
10310;BME280;5200;43.236;27.986;2024-03-02T06:37:50;99768.63;;;7.98;100.00
10310;BME280;5200;43.236;27.986;2024-03-02T06:40:18;99764.38;;;8.07;100.00
10310;BME280;5200;43.236;27.986;2024-03-02T06:42:46;99753.53;;;7.90;100.00
10310;BME280;5200;43.236;27.986;2024-03-02T06:45:13;99741.88;;;8.04;100.00
10310;BME280;5200;43.236;27.986;2024-03-02T06:47:40;99763.75;;;8.14;100.00
10310;BME280;5200;43.236;27.986;2024-03-02T06:50:07;99766.22;;;8.16;100.00
10310;BME280;5200;43.236;27.986;2024-03-02T06:52:34;99767.38;;;8.23;100.00
10310;BME280;5200;43.236;27.986;2024-03-02T06:55:01;99742.41;;;8.19;100.00
10310;BME280;5200;43.236;27.986;2024-03-02T06:57:31;99750.88;;;8.32;100.00
10310;BME280;5200;43.236;27.986;2024-03-02T06:59:58;99748.97;;;8.34;100.00
10310;BME280;5200;43.236;27.986;2024-03-02T07:02:25;99745.91;;;8.29;100.00
10310;BME280;5200;43.236;27.986;2024-03-02T07:04:52;99764.22;;;8.40;100.00
10310;BME280;5200;43.236;27.986;2024-03-02T07:07:19;99773.22;;;8.48;100.00
10310;BME280;5200;43.236;27.986;2024-03-02T07:09:46;99778.22;;;8.51;100.00
10310;BME280;5200;43.236;27.986;2024-03-02T07:12:13;99784.91;;;8.64;100.00
10310;BME280;5200;43.236;27.986;2024-03-02T07:14:41;99763.19;;;8.53;100.00
10310;BME280;5200;43.236;27.986;2024-03-02T07:17:33;99780.38;;;8.66;100.00
10310;BME280;5200;43.236;27.986;2024-03-02T07:20:01;99776.25;;;8.74;100.00
10310;BME280;5200;43.236;27.986;2024-03-02T07:22:29;99752.34;;;8.67;100.00
10310;BME280;5200;43.236;27.986;2024-03-02T07:24:56;99773.94;;;8.80;100.00
10310;BME280;5200;43.236;27.986;2024-03-02T07:27:23;99785.38;;;8.79;100.00
10310;BME280;5200;43.236;27.986;2024-03-02T07:29:51;99778.59;;;8.77;100.00
10310;BME280;5200;43.236;27.986;2024-03-02T07:32:18;99781.53;;;8.83;100.00
10310;BME280;5200;43.236;27.986;2024-03-02T07:34:45;99762.28;;;8.63;100.00
10310;BME280;5200;43.236;27.986;2024-03-02T07:37:12;99780.41;;;8.76;100.00
10310;BME280;5200;43.236;27.986;2024-03-02T07:39:38;99753.03;;;8.69;100.00
10310;BME280;5200;43.236;27.986;2024-03-02T07:42:05;99765.63;;;8.75;100.00
10310;BME280;5200;43.236;27.986;2024-03-02T07:44:32;99769.06;;;8.66;100.00
10310;BME280;5200;43.236;27.986;2024-03-02T07:47:01;99753.56;;;8.63;100.00
10310;BME280;5200;43.236;27.986;2024-03-02T07:49:28;99763.72;;;8.77;100.00
10310;BME280;5200;43.236;27.986;2024-03-02T07:51:54;99766.34;;;8.77;100.00
10310;BME280;5200;43.236;27.986;2024-03-02T07:54:21;99752.34;;;8.67;100.00
10310;BME280;5200;43.236;27.986;2024-03-02T07:56:48;99763.03;;;8.75;100.00
10310;BME280;5200;43.236;27.986;2024-03-02T07:59:15;99777.63;;;8.68;100.00
10310;BME280;5200;43.236;27.986;2024-03-02T08:01:42;99751.91;;;8.62;100.00
10310;BME280;5200;43.236;27.986;2024-03-02T08:04:10;99774.28;;;8.66;100.00
10310;BME280;5200;43.236;27.986;2024-03-02T08:06:39;99788.34;;;8.65;100.00
10310;BME280;5200;43.236;27.986;2024-03-02T08:09:06;99755.75;;;8.58;100.00
10310;BME280;5200;43.236;27.986;2024-03-02T08:11:35;99769.38;;;8.73;100.00
10310;BME280;5200;43.236;27.986;2024-03-02T08:14:02;99760.63;;;8.72;100.00
10310;BME280;5200;43.236;27.986;2024-03-02T08:16:29;99768.84;;;8.58;100.00
10310;BME280;5200;43.236;27.986;2024-03-02T08:18:57;99759.00;;;8.71;100.00
10310;BME280;5200;43.236;27.986;2024-03-02T08:21:25;99758.00;;;8.72;100.00
10310;BME280;5200;43.236;27.986;2024-03-02T08:23:56;99733.84;;;8.68;100.00
10310;BME280;5200;43.236;27.986;2024-03-02T08:26:23;99775.66;;;8.70;100.00
10310;BME280;5200;43.236;27.986;2024-03-02T08:28:50;99737.56;;;8.66;100.00
10310;BME280;5200;43.236;27.986;2024-03-02T08:31:17;99768.84;;;8.88;100.00
10310;BME280;5200;43.236;27.986;2024-03-02T08:33:43;99754.69;;;8.70;100.00
10310;BME280;5200;43.236;27.986;2024-03-02T08:36:10;99761.16;;;8.97;100.00
10310;BME280;5200;43.236;27.986;2024-03-02T08:38:39;99745.25;;;8.88;100.00
10310;BME280;5200;43.236;27.986;2024-03-02T08:41:06;99770.59;;;9.19;100.00
10310;BME280;5200;43.236;27.986;2024-03-02T08:43:34;99756.78;;;9.26;100.00
10310;BME280;5200;43.236;27.986;2024-03-02T08:46:01;99739.41;;;9.45;100.00
10310;BME280;5200;43.236;27.986;2024-03-02T08:48:28;99766.25;;;9.58;100.00
10310;BME280;5200;43.236;27.986;2024-03-02T08:50:54;99766.81;;;9.71;100.00
10310;BME280;5200;43.236;27.986;2024-03-02T08:53:21;99760.88;;;9.79;100.00
10310;BME280;5200;43.236;27.986;2024-03-02T08:55:50;99777.59;;;10.07;100.00
10310;BME280;5200;43.236;27.986;2024-03-02T08:58:16;99768.63;;;10.00;100.00
10310;BME280;5200;43.236;27.986;2024-03-02T09:00:43;99786.56;;;10.34;100.00
10310;BME280;5200;43.236;27.986;2024-03-02T09:03:10;99801.47;;;10.53;100.00
10310;BME280;5200;43.236;27.986;2024-03-02T09:05:37;99776.63;;;10.38;100.00
10310;BME280;5200;43.236;27.986;2024-03-02T09:08:05;99793.63;;;10.43;100.00
10310;BME280;5200;43.236;27.986;2024-03-02T09:10:32;99775.34;;;10.42;100.00
10310;BME280;5200;43.236;27.986;2024-03-02T09:13:01;99778.97;;;10.31;100.00
10310;BME280;5200;43.236;27.986;2024-03-02T09:15:27;99770.22;;;10.50;100.00
10310;BME280;5200;43.236;27.986;2024-03-02T09:17:54;99768.47;;;10.31;100.00
10310;BME280;5200;43.236;27.986;2024-03-02T09:20:21;99775.66;;;10.09;100.00
10310;BME280;5200;43.236;27.986;2024-03-02T09:22:48;99778.28;;;10.09;100.00
10310;BME280;5200;43.236;27.986;2024-03-02T09:25:15;99764.59;;;9.96;100.00
10310;BME280;5200;43.236;27.986;2024-03-02T09:27:42;99788.66;;;9.82;100.00
10310;BME280;5200;43.236;27.986;2024-03-02T09:30:11;99776.91;;;9.86;100.00
10310;BME280;5200;43.236;27.986;2024-03-02T09:32:39;99764.88;;;9.83;100.00
10310;BME280;5200;43.236;27.986;2024-03-02T09:35:06;99768.06;;;9.87;100.00
10310;BME280;5200;43.236;27.986;2024-03-02T09:37:34;99781.75;;;10.00;100.00
10310;BME280;5200;43.236;27.986;2024-03-02T09:40:01;99772.88;;;10.01;100.00
10310;BME280;5200;43.236;27.986;2024-03-02T09:42:28;99754.38;;;9.93;100.00
10310;BME280;5200;43.236;27.986;2024-03-02T09:44:56;99779.53;;;9.86;100.00
10310;BME280;5200;43.236;27.986;2024-03-02T09:47:25;99775.53;;;9.72;100.00
10310;BME280;5200;43.236;27.986;2024-03-02T09:49:52;99780.78;;;9.62;100.00
10310;BME280;5200;43.236;27.986;2024-03-02T09:52:19;99758.25;;;9.69;100.00
10310;BME280;5200;43.236;27.986;2024-03-02T09:54:47;99766.13;;;9.79;100.00
10310;BME280;5200;43.236;27.986;2024-03-02T09:57:14;99760.88;;;9.89;100.00
10310;BME280;5200;43.236;27.986;2024-03-02T09:59:41;99766.00;;;9.90;100.00
10310;BME280;5200;43.236;27.986;2024-03-02T10:02:08;99752.00;;;9.90;100.00
10310;BME280;5200;43.236;27.986;2024-03-02T10:04:36;99778.03;;;9.93;100.00
10310;BME280;5200;43.236;27.986;2024-03-02T10:07:10;99767.94;;;9.79;100.00
10310;BME280;5200;43.236;27.986;2024-03-02T10:09:37;99746.34;;;9.75;100.00
10310;BME280;5200;43.236;27.986;2024-03-02T10:12:05;99755.31;;;9.92;100.00
10310;BME280;5200;43.236;27.986;2024-03-02T10:14:33;99774.69;;;10.10;100.00
10310;BME280;5200;43.236;27.986;2024-03-02T10:17:02;99745.75;;;10.10;100.00
10310;BME280;5200;43.236;27.986;2024-03-02T10:19:30;99770.38;;;10.39;100.00
10310;BME280;5200;43.236;27.986;2024-03-02T10:22:00;99756.69;;;10.35;100.00
10310;BME280;5200;43.236;27.986;2024-03-02T10:24:34;99748.22;;;10.41;100.00
10310;BME280;5200;43.236;27.986;2024-03-02T10:27:02;99764.97;;;10.40;100.00
10310;BME280;5200;43.236;27.986;2024-03-02T10:29:30;99762.22;;;10.12;100.00
10310;BME280;5200;43.236;27.986;2024-03-02T10:31:57;99762.94;;;9.76;100.00
10310;BME280;5200;43.236;27.986;2024-03-02T10:34:24;99739.00;;;9.40;100.00
10310;BME280;5200;43.236;27.986;2024-03-02T10:36:51;99736.38;;;9.40;100.00
10310;BME280;5200;43.236;27.986;2024-03-02T10:39:19;99746.91;;;9.69;100.00
10310;BME280;5200;43.236;27.986;2024-03-02T10:41:49;99722.81;;;9.73;100.00
10310;BME280;5200;43.236;27.986;2024-03-02T10:44:18;99735.81;;;10.04;100.00
10310;BME280;5200;43.236;27.986;2024-03-02T10:46:47;99719.22;;;9.94;100.00
10310;BME280;5200;43.236;27.986;2024-03-02T10:49:16;99717.03;;;9.70;100.00
10310;BME280;5200;43.236;27.986;2024-03-02T10:51:43;99710.94;;;9.50;100.00
10310;BME280;5200;43.236;27.986;2024-03-02T10:54:10;99716.59;;;9.36;100.00
10310;BME280;5200;43.236;27.986;2024-03-02T10:56:40;99716.34;;;9.39;100.00
10310;BME280;5200;43.236;27.986;2024-03-02T10:59:17;99698.22;;;9.16;100.00
10310;BME280;5200;43.236;27.986;2024-03-02T11:01:48;99718.41;;;9.45;100.00
10310;BME280;5200;43.236;27.986;2024-03-02T11:04:16;99704.44;;;9.54;100.00
10310;BME280;5200;43.236;27.986;2024-03-02T11:06:48;99715.25;;;9.51;100.00
10310;BME280;5200;43.236;27.986;2024-03-02T11:09:16;99698.94;;;9.57;100.00
10310;BME280;5200;43.236;27.986;2024-03-02T11:11:52;99718.41;;;9.84;100.00
10310;BME280;5200;43.236;27.986;2024-03-02T11:14:24;99718.16;;;9.67;100.00
10310;BME280;5200;43.236;27.986;2024-03-02T11:16:51;99718.16;;;9.67;100.00
10310;BME280;5200;43.236;27.986;2024-03-02T11:19:19;99714.53;;;9.68;100.00
10310;BME280;5200;43.236;27.986;2024-03-02T11:21:46;99696.56;;;9.54;100.00
10310;BME280;5200;43.236;27.986;2024-03-02T11:24:30;99710.28;;;9.48;100.00
10310;BME280;5200;43.236;27.986;2024-03-02T11:27:02;99693.25;;;9.13;100.00
10310;BME280;5200;43.236;27.986;2024-03-02T11:29:46;99713.97;;;9.16;100.00
10310;BME280;5200;43.236;27.986;2024-03-02T11:32:17;99694.34;;;9.01;100.00
10310;BME280;5200;43.236;27.986;2024-03-02T11:34:46;99694.59;;;8.98;100.00
10310;BME280;5200;43.236;27.986;2024-03-02T11:37:13;99693.94;;;9.05;100.00
10310;BME280;5200;43.236;27.986;2024-03-02T11:39:40;99685.19;;;8.95;100.00
10310;BME280;5200;43.236;27.986;2024-03-02T11:42:08;99703.06;;;9.30;100.00
10310;BME280;5200;43.236;27.986;2024-03-02T11:44:36;99676.41;;;9.25;100.00
10310;BME280;5200;43.236;27.986;2024-03-02T11:47:06;99703.06;;;9.50;100.00
10310;BME280;5200;43.236;27.986;2024-03-02T11:49:37;99680.94;;;9.43;100.00
10310;BME280;5200;43.236;27.986;2024-03-02T11:52:06;99701.81;;;9.64;100.00
10310;BME280;5200;43.236;27.986;2024-03-02T11:54:34;99687.88;;;9.53;100.00
10310;BME280;5200;43.236;27.986;2024-03-02T11:57:02;99699.06;;;9.56;100.00
10310;BME280;5200;43.236;27.986;2024-03-02T11:59:30;99692.72;;;9.58;100.00
10310;BME280;5200;43.236;27.986;2024-03-02T12:01:58;99680.69;;;9.46;100.00
10310;BME280;5200;43.236;27.986;2024-03-02T12:04:26;99699.06;;;9.46;100.00
10310;BME280;5200;43.236;27.986;2024-03-02T12:06:54;99675.56;;;9.25;100.00
10310;BME280;5200;43.236;27.986;2024-03-02T12:09:21;99692.97;;;9.36;100.00
10310;BME280;5200;43.236;27.986;2024-03-02T12:12:01;99681.94;;;9.22;100.00
10310;BME280;5200;43.236;27.986;2024-03-02T12:14:30;99673.75;;;9.16;100.00
10310;BME280;5200;43.236;27.986;2024-03-02T12:16:57;99669.22;;;9.08;100.00
10310;BME280;5200;43.236;27.986;2024-03-02T12:19:24;99673.34;;;9.10;100.00
10310;BME280;5200;43.236;27.986;2024-03-02T12:21:51;99674.59;;;9.06;100.00
10310;BME280;5200;43.236;27.986;2024-03-02T12:24:19;99656.75;;;9.10;100.00
10310;BME280;5200;43.236;27.986;2024-03-02T12:26:46;99665.06;;;9.25;100.00
10310;BME280;5200;43.236;27.986;2024-03-02T12:29:13;99692.16;;;9.55;100.00
10310;BME280;5200;43.236;27.986;2024-03-02T12:31:43;99681.50;;;9.56;100.00
10310;BME280;5200;43.236;27.986;2024-03-02T12:34:12;99675.84;;;9.51;100.00
10310;BME280;5200;43.236;27.986;2024-03-02T12:36:40;99681.22;;;9.79;100.00
10310;BME280;5200;43.236;27.986;2024-03-02T12:39:08;99673.50;;;9.67;100.00
10310;BME280;5200;43.236;27.986;2024-03-02T12:41:36;99669.63;;;9.52;100.00
10310;BME280;5200;43.236;27.986;2024-03-02T12:44:04;99691.47;;;9.43;100.00
10310;BME280;5200;43.236;27.986;2024-03-02T12:46:31;99688.56;;;9.36;100.00
10310;BME280;5200;43.236;27.986;2024-03-02T12:49:07;99686.50;;;9.30;100.00
10310;BME280;5200;43.236;27.986;2024-03-02T12:51:34;99686.19;;;9.23;100.00
10310;BME280;5200;43.236;27.986;2024-03-02T12:54:01;99694.50;;;9.28;100.00
10310;BME280;5200;43.236;27.986;2024-03-02T12:56:29;99687.84;;;9.15;100.00
10310;BME280;5200;43.236;27.986;2024-03-02T12:58:56;99677.75;;;9.10;100.00
10310;BME280;5200;43.236;27.986;2024-03-02T13:01:23;99682.88;;;9.12;100.00
10310;BME280;5200;43.236;27.986;2024-03-02T13:03:50;99674.88;;;9.13;100.00